sensor_id;sensor_type;location;lat;lon;timestamp;P1;durP1;ratioP1;P2;durP2;ratioP2
75772;SDS011;64381;0.000;0.000;2023-06-14T00:00:55;3.17;;;1.63;;
75772;SDS011;64381;0.000;0.000;2023-06-14T00:03:21;3.27;;;1.70;;
75772;SDS011;64381;0.000;0.000;2023-06-14T00:05:46;3.40;;;1.70;;
75772;SDS011;64381;0.000;0.000;2023-06-14T00:08:11;4.40;;;2.00;;
75772;SDS011;64381;0.000;0.000;2023-06-14T00:10:36;3.33;;;1.70;;
75772;SDS011;64381;0.000;0.000;2023-06-14T00:13:02;3.67;;;1.60;;
75772;SDS011;64381;0.000;0.000;2023-06-14T00:15:28;3.40;;;1.73;;
75772;SDS011;64381;0.000;0.000;2023-06-14T00:17:53;3.33;;;1.83;;
75772;SDS011;64381;0.000;0.000;2023-06-14T00:20:18;3.40;;;1.80;;
75772;SDS011;64381;0.000;0.000;2023-06-14T00:22:44;3.70;;;1.90;;
75772;SDS011;64381;0.000;0.000;2023-06-14T00:25:09;3.40;;;1.67;;
75772;SDS011;64381;0.000;0.000;2023-06-14T00:27:34;3.53;;;1.83;;
75772;SDS011;64381;0.000;0.000;2023-06-14T00:29:59;3.50;;;1.83;;
75772;SDS011;64381;0.000;0.000;2023-06-14T00:32:24;2.93;;;1.63;;
75772;SDS011;64381;0.000;0.000;2023-06-14T00:34:50;3.50;;;1.80;;
75772;SDS011;64381;0.000;0.000;2023-06-14T00:37:15;3.57;;;1.80;;
75772;SDS011;64381;0.000;0.000;2023-06-14T00:39:40;3.90;;;1.83;;
75772;SDS011;64381;0.000;0.000;2023-06-14T00:42:05;3.33;;;1.90;;
75772;SDS011;64381;0.000;0.000;2023-06-14T00:44:31;3.20;;;1.60;;
75772;SDS011;64381;0.000;0.000;2023-06-14T00:46:56;3.60;;;1.80;;
75772;SDS011;64381;0.000;0.000;2023-06-14T00:49:21;3.50;;;2.00;;
75772;SDS011;64381;0.000;0.000;2023-06-14T00:51:47;4.50;;;1.90;;
75772;SDS011;64381;0.000;0.000;2023-06-14T00:54:12;3.60;;;2.00;;
75772;SDS011;64381;0.000;0.000;2023-06-14T00:56:37;3.57;;;1.80;;
75772;SDS011;64381;0.000;0.000;2023-06-14T00:59:04;3.33;;;1.70;;
75772;SDS011;64381;0.000;0.000;2023-06-14T01:01:30;3.37;;;1.73;;
75772;SDS011;64381;0.000;0.000;2023-06-14T01:03:55;3.47;;;1.60;;
75772;SDS011;64381;0.000;0.000;2023-06-14T01:06:27;3.77;;;1.80;;
75772;SDS011;64381;0.000;0.000;2023-06-14T01:09:15;3.67;;;1.85;;
75772;SDS011;64381;0.000;0.000;2023-06-14T01:11:54;3.38;;;1.70;;
75772;SDS011;64381;0.000;0.000;2023-06-14T01:14:26;3.63;;;1.88;;
75772;SDS011;64381;0.000;0.000;2023-06-14T01:16:52;3.97;;;1.90;;
75772;SDS011;64381;0.000;0.000;2023-06-14T01:19:19;3.40;;;1.80;;
75772;SDS011;64381;0.000;0.000;2023-06-14T01:21:46;3.40;;;2.00;;
75772;SDS011;64381;0.000;0.000;2023-06-14T01:24:12;4.07;;;1.80;;
75772;SDS011;64381;0.000;0.000;2023-06-14T01:26:37;3.83;;;2.07;;
75772;SDS011;64381;0.000;0.000;2023-06-14T01:29:04;3.35;;;1.80;;
75772;SDS011;64381;0.000;0.000;2023-06-14T01:31:29;3.50;;;1.80;;
75772;SDS011;64381;0.000;0.000;2023-06-14T01:33:55;3.57;;;1.80;;
75772;SDS011;64381;0.000;0.000;2023-06-14T01:36:20;3.58;;;1.90;;
75772;SDS011;64381;0.000;0.000;2023-06-14T01:38:47;3.67;;;1.70;;
75772;SDS011;64381;0.000;0.000;2023-06-14T01:41:13;3.55;;;1.90;;
75772;SDS011;64381;0.000;0.000;2023-06-14T01:43:40;3.88;;;2.08;;
75772;SDS011;64381;0.000;0.000;2023-06-14T01:46:06;3.60;;;1.70;;
75772;SDS011;64381;0.000;0.000;2023-06-14T01:48:34;3.40;;;2.00;;
75772;SDS011;64381;0.000;0.000;2023-06-14T01:50:59;3.87;;;2.07;;
75772;SDS011;64381;0.000;0.000;2023-06-14T01:53:24;3.83;;;1.90;;
75772;SDS011;64381;0.000;0.000;2023-06-14T01:55:50;3.57;;;1.80;;
75772;SDS011;64381;0.000;0.000;2023-06-14T01:58:15;3.53;;;1.90;;
75772;SDS011;64381;0.000;0.000;2023-06-14T02:00:41;3.50;;;1.90;;
75772;SDS011;64381;0.000;0.000;2023-06-14T02:03:06;3.80;;;1.90;;
75772;SDS011;64381;0.000;0.000;2023-06-14T02:05:31;3.53;;;1.77;;
75772;SDS011;64381;0.000;0.000;2023-06-14T02:07:57;3.67;;;1.80;;
75772;SDS011;64381;0.000;0.000;2023-06-14T02:10:22;3.90;;;2.20;;
75772;SDS011;64381;0.000;0.000;2023-06-14T02:12:47;4.03;;;2.00;;
75772;SDS011;64381;0.000;0.000;2023-06-14T02:15:13;3.42;;;1.83;;
75772;SDS011;64381;0.000;0.000;2023-06-14T02:17:38;3.37;;;1.90;;
75772;SDS011;64381;0.000;0.000;2023-06-14T02:20:04;3.33;;;1.87;;
75772;SDS011;64381;0.000;0.000;2023-06-14T02:22:29;3.97;;;1.90;;
75772;SDS011;64381;0.000;0.000;2023-06-14T02:24:55;4.10;;;2.00;;
75772;SDS011;64381;0.000;0.000;2023-06-14T02:27:21;3.73;;;1.90;;
75772;SDS011;64381;0.000;0.000;2023-06-14T02:29:46;3.35;;;1.75;;
75772;SDS011;64381;0.000;0.000;2023-06-14T02:32:11;3.70;;;2.00;;
75772;SDS011;64381;0.000;0.000;2023-06-14T02:34:37;3.87;;;2.03;;
75772;SDS011;64381;0.000;0.000;2023-06-14T02:37:02;3.57;;;1.80;;
75772;SDS011;64381;0.000;0.000;2023-06-14T02:39:27;3.73;;;1.83;;
75772;SDS011;64381;0.000;0.000;2023-06-14T02:41:53;3.50;;;2.00;;
75772;SDS011;64381;0.000;0.000;2023-06-14T02:44:18;3.60;;;1.90;;
75772;SDS011;64381;0.000;0.000;2023-06-14T02:46:43;3.80;;;2.00;;
75772;SDS011;64381;0.000;0.000;2023-06-14T02:49:09;3.50;;;1.80;;
75772;SDS011;64381;0.000;0.000;2023-06-14T02:51:35;3.50;;;1.80;;
75772;SDS011;64381;0.000;0.000;2023-06-14T02:54:00;3.30;;;1.90;;
75772;SDS011;64381;0.000;0.000;2023-06-14T02:56:25;3.60;;;1.80;;
75772;SDS011;64381;0.000;0.000;2023-06-14T02:58:50;3.73;;;1.90;;
75772;SDS011;64381;0.000;0.000;2023-06-14T03:01:16;3.60;;;1.90;;
75772;SDS011;64381;0.000;0.000;2023-06-14T03:03:41;4.30;;;2.20;;
75772;SDS011;64381;0.000;0.000;2023-06-14T03:06:06;3.80;;;2.10;;
75772;SDS011;64381;0.000;0.000;2023-06-14T03:08:31;3.80;;;2.03;;
75772;SDS011;64381;0.000;0.000;2023-06-14T03:10:57;3.50;;;1.90;;
75772;SDS011;64381;0.000;0.000;2023-06-14T03:13:22;3.20;;;1.80;;
75772;SDS011;64381;0.000;0.000;2023-06-14T03:15:47;3.43;;;1.80;;
75772;SDS011;64381;0.000;0.000;2023-06-14T03:18:13;3.58;;;1.92;;
75772;SDS011;64381;0.000;0.000;2023-06-14T03:20:38;4.33;;;2.00;;
75772;SDS011;64381;0.000;0.000;2023-06-14T03:23:03;3.67;;;1.93;;
75772;SDS011;64381;0.000;0.000;2023-06-14T03:25:29;3.80;;;1.90;;
75772;SDS011;64381;0.000;0.000;2023-06-14T03:27:54;3.70;;;2.00;;
75772;SDS011;64381;0.000;0.000;2023-06-14T03:30:20;3.80;;;1.95;;
75772;SDS011;64381;0.000;0.000;2023-06-14T03:32:45;3.70;;;2.00;;
75772;SDS011;64381;0.000;0.000;2023-06-14T03:35:10;3.43;;;1.80;;
75772;SDS011;64381;0.000;0.000;2023-06-14T03:37:35;3.70;;;1.90;;
75772;SDS011;64381;0.000;0.000;2023-06-14T03:40:00;4.20;;;2.20;;
75772;SDS011;64381;0.000;0.000;2023-06-14T03:42:26;3.97;;;1.90;;
75772;SDS011;64381;0.000;0.000;2023-06-14T03:44:51;3.47;;;1.90;;
75772;SDS011;64381;0.000;0.000;2023-06-14T03:47:16;3.60;;;2.10;;
75772;SDS011;64381;0.000;0.000;2023-06-14T03:49:41;3.73;;;2.10;;
75772;SDS011;64381;0.000;0.000;2023-06-14T03:52:06;4.63;;;2.00;;
75772;SDS011;64381;0.000;0.000;2023-06-14T03:54:32;3.47;;;2.03;;
75772;SDS011;64381;0.000;0.000;2023-06-14T03:56:57;3.70;;;2.00;;
75772;SDS011;64381;0.000;0.000;2023-06-14T03:59:23;3.40;;;2.10;;
75772;SDS011;64381;0.000;0.000;2023-06-14T04:01:48;4.68;;;2.10;;
75772;SDS011;64381;0.000;0.000;2023-06-14T04:04:13;3.80;;;2.00;;
75772;SDS011;64381;0.000;0.000;2023-06-14T04:06:38;3.37;;;1.80;;
75772;SDS011;64381;0.000;0.000;2023-06-14T04:09:04;4.03;;;2.00;;
75772;SDS011;64381;0.000;0.000;2023-06-14T04:11:29;4.00;;;2.10;;
75772;SDS011;64381;0.000;0.000;2023-06-14T04:13:55;3.50;;;2.07;;
75772;SDS011;64381;0.000;0.000;2023-06-14T04:16:20;3.87;;;2.17;;
75772;SDS011;64381;0.000;0.000;2023-06-14T04:18:45;3.63;;;2.00;;
75772;SDS011;64381;0.000;0.000;2023-06-14T04:21:10;3.60;;;2.07;;
75772;SDS011;64381;0.000;0.000;2023-06-14T04:23:35;3.53;;;1.93;;
75772;SDS011;64381;0.000;0.000;2023-06-14T04:26:01;3.50;;;2.03;;
75772;SDS011;64381;0.000;0.000;2023-06-14T04:28:26;3.50;;;1.90;;
75772;SDS011;64381;0.000;0.000;2023-06-14T04:30:51;3.80;;;1.90;;
75772;SDS011;64381;0.000;0.000;2023-06-14T04:33:16;3.90;;;2.10;;
75772;SDS011;64381;0.000;0.000;2023-06-14T04:35:42;3.60;;;1.93;;
75772;SDS011;64381;0.000;0.000;2023-06-14T04:38:07;3.60;;;2.00;;
75772;SDS011;64381;0.000;0.000;2023-06-14T04:40:32;3.90;;;2.20;;
75772;SDS011;64381;0.000;0.000;2023-06-14T04:42:58;3.63;;;1.80;;
75772;SDS011;64381;0.000;0.000;2023-06-14T04:45:24;4.00;;;2.20;;
75772;SDS011;64381;0.000;0.000;2023-06-14T04:47:49;4.23;;;2.13;;
75772;SDS011;64381;0.000;0.000;2023-06-14T04:50:14;3.97;;;2.00;;
75772;SDS011;64381;0.000;0.000;2023-06-14T04:52:39;3.77;;;2.10;;
75772;SDS011;64381;0.000;0.000;2023-06-14T04:55:05;4.37;;;2.30;;
75772;SDS011;64381;0.000;0.000;2023-06-14T04:57:31;4.38;;;2.30;;
75772;SDS011;64381;0.000;0.000;2023-06-14T04:59:56;4.03;;;2.10;;
75772;SDS011;64381;0.000;0.000;2023-06-14T05:02:22;4.10;;;2.43;;
75772;SDS011;64381;0.000;0.000;2023-06-14T05:04:47;3.95;;;2.13;;
75772;SDS011;64381;0.000;0.000;2023-06-14T05:07:12;4.30;;;2.37;;
75772;SDS011;64381;0.000;0.000;2023-06-14T05:09:38;3.70;;;2.10;;
75772;SDS011;64381;0.000;0.000;2023-06-14T05:12:03;4.10;;;2.10;;
75772;SDS011;64381;0.000;0.000;2023-06-14T05:14:29;4.93;;;2.00;;
75772;SDS011;64381;0.000;0.000;2023-06-14T05:16:54;3.97;;;2.00;;
75772;SDS011;64381;0.000;0.000;2023-06-14T05:19:19;5.03;;;2.20;;
75772;SDS011;64381;0.000;0.000;2023-06-14T05:21:44;3.63;;;2.00;;
75772;SDS011;64381;0.000;0.000;2023-06-14T05:24:09;4.00;;;2.10;;
75772;SDS011;64381;0.000;0.000;2023-06-14T05:26:35;3.63;;;2.20;;
75772;SDS011;64381;0.000;0.000;2023-06-14T05:29:00;4.07;;;2.37;;
75772;SDS011;64381;0.000;0.000;2023-06-14T05:31:25;3.70;;;2.00;;
75772;SDS011;64381;0.000;0.000;2023-06-14T05:33:51;4.10;;;2.23;;
75772;SDS011;64381;0.000;0.000;2023-06-14T05:36:17;4.40;;;2.08;;
75772;SDS011;64381;0.000;0.000;2023-06-14T05:38:42;3.70;;;2.10;;
75772;SDS011;64381;0.000;0.000;2023-06-14T06:43:13;5.75;;;2.10;;
75772;SDS011;64381;0.000;0.000;2023-06-14T06:45:38;4.67;;;2.40;;
75772;SDS011;64381;0.000;0.000;2023-06-14T06:48:03;4.10;;;1.87;;
75772;SDS011;64381;0.000;0.000;2023-06-14T06:50:29;3.70;;;2.10;;
75772;SDS011;64381;0.000;0.000;2023-06-14T06:52:54;3.90;;;2.10;;
75772;SDS011;64381;0.000;0.000;2023-06-14T06:55:19;3.77;;;2.03;;
75772;SDS011;64381;0.000;0.000;2023-06-14T06:57:45;3.50;;;1.98;;
75772;SDS011;64381;0.000;0.000;2023-06-14T07:00:10;4.13;;;2.50;;
75772;SDS011;64381;0.000;0.000;2023-06-14T07:02:36;3.90;;;2.10;;
75772;SDS011;64381;0.000;0.000;2023-06-14T07:05:01;3.70;;;2.17;;
75772;SDS011;64381;0.000;0.000;2023-06-14T07:07:27;3.97;;;2.20;;
75772;SDS011;64381;0.000;0.000;2023-06-14T07:09:52;3.70;;;2.10;;
75772;SDS011;64381;0.000;0.000;2023-06-14T07:12:17;3.83;;;2.10;;
75772;SDS011;64381;0.000;0.000;2023-06-14T07:14:43;3.90;;;2.07;;
75772;SDS011;64381;0.000;0.000;2023-06-14T07:17:08;3.40;;;1.97;;
75772;SDS011;64381;0.000;0.000;2023-06-14T07:19:33;3.80;;;2.00;;
75772;SDS011;64381;0.000;0.000;2023-06-14T07:21:58;4.40;;;2.07;;
75772;SDS011;64381;0.000;0.000;2023-06-14T07:24:23;3.70;;;2.13;;
75772;SDS011;64381;0.000;0.000;2023-06-14T07:26:49;3.50;;;1.90;;
75772;SDS011;64381;0.000;0.000;2023-06-14T07:29:14;3.70;;;1.90;;
75772;SDS011;64381;0.000;0.000;2023-06-14T07:31:39;3.57;;;2.07;;
75772;SDS011;64381;0.000;0.000;2023-06-14T07:34:05;3.97;;;2.07;;
75772;SDS011;64381;0.000;0.000;2023-06-14T07:36:30;3.67;;;2.20;;
75772;SDS011;64381;0.000;0.000;2023-06-14T07:38:55;3.67;;;2.13;;
75772;SDS011;64381;0.000;0.000;2023-06-14T07:41:20;4.77;;;1.80;;
75772;SDS011;64381;0.000;0.000;2023-06-14T07:43:45;3.33;;;2.00;;
75772;SDS011;64381;0.000;0.000;2023-06-14T07:46:11;4.20;;;2.00;;
75772;SDS011;64381;0.000;0.000;2023-06-14T07:48:36;3.50;;;2.00;;
75772;SDS011;64381;0.000;0.000;2023-06-14T07:51:01;3.90;;;2.00;;
75772;SDS011;64381;0.000;0.000;2023-06-14T07:53:27;3.53;;;2.03;;
75772;SDS011;64381;0.000;0.000;2023-06-14T07:55:52;3.50;;;1.83;;
75772;SDS011;64381;0.000;0.000;2023-06-14T07:58:18;3.63;;;1.80;;
75772;SDS011;64381;0.000;0.000;2023-06-14T08:00:43;4.43;;;1.90;;
75772;SDS011;64381;0.000;0.000;2023-06-14T08:03:08;3.40;;;1.90;;
75772;SDS011;64381;0.000;0.000;2023-06-14T08:05:33;4.03;;;2.20;;
75772;SDS011;64381;0.000;0.000;2023-06-14T08:07:58;3.37;;;1.80;;
75772;SDS011;64381;0.000;0.000;2023-06-14T08:10:24;3.80;;;2.13;;
75772;SDS011;64381;0.000;0.000;2023-06-14T08:12:49;3.70;;;1.90;;
75772;SDS011;64381;0.000;0.000;2023-06-14T08:15:14;3.70;;;2.00;;
75772;SDS011;64381;0.000;0.000;2023-06-14T08:17:39;4.23;;;2.20;;
75772;SDS011;64381;0.000;0.000;2023-06-14T08:20:05;3.63;;;1.97;;
75772;SDS011;64381;0.000;0.000;2023-06-14T08:22:30;3.40;;;1.60;;
75772;SDS011;64381;0.000;0.000;2023-06-14T08:24:56;3.40;;;1.80;;
75772;SDS011;64381;0.000;0.000;2023-06-14T08:27:21;3.13;;;1.80;;
75772;SDS011;64381;0.000;0.000;2023-06-14T08:29:46;4.27;;;2.30;;
75772;SDS011;64381;0.000;0.000;2023-06-14T08:32:11;3.73;;;1.93;;
75772;SDS011;64381;0.000;0.000;2023-06-14T08:34:37;4.03;;;1.90;;
75772;SDS011;64381;0.000;0.000;2023-06-14T08:37:02;3.70;;;2.10;;
75772;SDS011;64381;0.000;0.000;2023-06-14T08:39:27;3.40;;;1.90;;
75772;SDS011;64381;0.000;0.000;2023-06-14T08:41:52;3.07;;;1.63;;
75772;SDS011;64381;0.000;0.000;2023-06-14T08:44:19;3.55;;;2.10;;
75772;SDS011;64381;0.000;0.000;2023-06-14T08:46:44;3.70;;;2.07;;
75772;SDS011;64381;0.000;0.000;2023-06-14T08:49:11;3.78;;;2.03;;
75772;SDS011;64381;0.000;0.000;2023-06-14T08:51:38;3.50;;;2.00;;
75772;SDS011;64381;0.000;0.000;2023-06-14T08:54:03;3.88;;;2.00;;
75772;SDS011;64381;0.000;0.000;2023-06-14T08:56:30;4.40;;;2.00;;
75772;SDS011;64381;0.000;0.000;2023-06-14T08:58:57;4.10;;;2.03;;
75772;SDS011;64381;0.000;0.000;2023-06-14T09:01:23;3.42;;;1.88;;
75772;SDS011;64381;0.000;0.000;2023-06-14T09:03:49;3.57;;;1.90;;
75772;SDS011;64381;0.000;0.000;2023-06-14T09:06:15;3.60;;;2.03;;
75772;SDS011;64381;0.000;0.000;2023-06-14T09:08:44;4.53;;;2.20;;
75772;SDS011;64381;0.000;0.000;2023-06-14T09:11:13;3.50;;;2.00;;
75772;SDS011;64381;0.000;0.000;2023-06-14T09:13:39;4.30;;;1.90;;
75772;SDS011;64381;0.000;0.000;2023-06-14T09:16:06;3.65;;;2.00;;
75772;SDS011;64381;0.000;0.000;2023-06-14T09:18:35;3.57;;;1.80;;
75772;SDS011;64381;0.000;0.000;2023-06-14T09:21:01;3.88;;;2.00;;
75772;SDS011;64381;0.000;0.000;2023-06-14T09:23:26;4.10;;;2.10;;
75772;SDS011;64381;0.000;0.000;2023-06-14T09:25:51;3.27;;;1.83;;
75772;SDS011;64381;0.000;0.000;2023-06-14T09:28:17;3.77;;;2.13;;
75772;SDS011;64381;0.000;0.000;2023-06-14T09:30:42;3.80;;;2.07;;
75772;SDS011;64381;0.000;0.000;2023-06-14T09:33:07;3.30;;;1.83;;
75772;SDS011;64381;0.000;0.000;2023-06-14T09:35:32;3.63;;;2.00;;
75772;SDS011;64381;0.000;0.000;2023-06-14T09:37:58;3.33;;;1.90;;
75772;SDS011;64381;0.000;0.000;2023-06-14T09:40:23;3.70;;;1.90;;
75772;SDS011;64381;0.000;0.000;2023-06-14T09:42:49;3.63;;;1.90;;
75772;SDS011;64381;0.000;0.000;2023-06-14T09:45:14;3.33;;;1.83;;
75772;SDS011;64381;0.000;0.000;2023-06-14T09:47:40;3.30;;;1.90;;
75772;SDS011;64381;0.000;0.000;2023-06-14T09:50:06;3.65;;;1.80;;
75772;SDS011;64381;0.000;0.000;2023-06-14T09:52:31;3.50;;;1.87;;
75772;SDS011;64381;0.000;0.000;2023-06-14T09:54:57;3.70;;;2.03;;
75772;SDS011;64381;0.000;0.000;2023-06-14T09:57:24;3.58;;;1.85;;
75772;SDS011;64381;0.000;0.000;2023-06-14T09:59:52;3.40;;;1.83;;
75772;SDS011;64381;0.000;0.000;2023-06-14T10:02:26;3.58;;;2.00;;
75772;SDS011;64381;0.000;0.000;2023-06-14T10:05:04;3.70;;;1.83;;
75772;SDS011;64381;0.000;0.000;2023-06-14T10:07:32;3.73;;;1.80;;
75772;SDS011;64381;0.000;0.000;2023-06-14T10:10:00;3.45;;;1.83;;
75772;SDS011;64381;0.000;0.000;2023-06-14T10:12:26;3.40;;;1.80;;
75772;SDS011;64381;0.000;0.000;2023-06-14T10:14:51;3.20;;;1.70;;
75772;SDS011;64381;0.000;0.000;2023-06-14T10:17:20;3.55;;;1.80;;
75772;SDS011;64381;0.000;0.000;2023-06-14T10:19:56;3.53;;;1.88;;
75772;SDS011;64381;0.000;0.000;2023-06-14T10:22:40;3.50;;;1.80;;
75772;SDS011;64381;0.000;0.000;2023-06-14T10:25:12;3.28;;;1.90;;
75772;SDS011;64381;0.000;0.000;2023-06-14T10:27:38;3.30;;;1.90;;
75772;SDS011;64381;0.000;0.000;2023-06-14T10:30:04;3.60;;;1.90;;
75772;SDS011;64381;0.000;0.000;2023-06-14T10:32:32;3.40;;;1.80;;
75772;SDS011;64381;0.000;0.000;2023-06-14T10:35:00;3.33;;;1.80;;
75772;SDS011;64381;0.000;0.000;2023-06-14T10:37:32;3.63;;;1.95;;
75772;SDS011;64381;0.000;0.000;2023-06-14T10:39:57;3.33;;;1.60;;
75772;SDS011;64381;0.000;0.000;2023-06-14T10:42:26;3.70;;;2.10;;
75772;SDS011;64381;0.000;0.000;2023-06-14T10:44:53;3.63;;;1.80;;
75772;SDS011;64381;0.000;0.000;2023-06-14T10:47:20;3.42;;;1.83;;
75772;SDS011;64381;0.000;0.000;2023-06-14T10:49:49;3.20;;;1.80;;
75772;SDS011;64381;0.000;0.000;2023-06-14T10:52:15;3.60;;;1.80;;
75772;SDS011;64381;0.000;0.000;2023-06-14T10:54:55;3.37;;;1.80;;
75772;SDS011;64381;0.000;0.000;2023-06-14T10:57:45;3.55;;;1.95;;
75772;SDS011;64381;0.000;0.000;2023-06-14T11:00:14;3.60;;;1.70;;
75772;SDS011;64381;0.000;0.000;2023-06-14T11:03:21;3.60;;;1.83;;
75772;SDS011;64381;0.000;0.000;2023-06-14T11:08:27;3.20;;;1.80;;
75772;SDS011;64381;0.000;0.000;2023-06-14T11:11:07;3.30;;;1.70;;
75772;SDS011;64381;0.000;0.000;2023-06-14T11:13:34;3.67;;;1.90;;
75772;SDS011;64381;0.000;0.000;2023-06-14T11:16:03;3.70;;;1.88;;
75772;SDS011;64381;0.000;0.000;2023-06-14T11:18:35;3.67;;;2.00;;
75772;SDS011;64381;0.000;0.000;2023-06-14T11:21:01;3.50;;;1.90;;
75772;SDS011;64381;0.000;0.000;2023-06-14T11:23:26;4.20;;;2.00;;
75772;SDS011;64381;0.000;0.000;2023-06-14T11:25:51;4.07;;;2.00;;
75772;SDS011;64381;0.000;0.000;2023-06-14T11:28:17;3.70;;;1.98;;
75772;SDS011;64381;0.000;0.000;2023-06-14T11:30:42;3.40;;;1.70;;
75772;SDS011;64381;0.000;0.000;2023-06-14T11:33:09;3.20;;;1.80;;
75772;SDS011;64381;0.000;0.000;2023-06-14T11:35:34;3.40;;;1.87;;
75772;SDS011;64381;0.000;0.000;2023-06-14T11:38:01;3.43;;;1.80;;
75772;SDS011;64381;0.000;0.000;2023-06-14T11:40:27;4.60;;;2.20;;
75772;SDS011;64381;0.000;0.000;2023-06-14T11:42:59;3.78;;;1.90;;
75772;SDS011;64381;0.000;0.000;2023-06-14T11:45:25;3.85;;;1.90;;
75772;SDS011;64381;0.000;0.000;2023-06-14T11:47:50;3.67;;;1.80;;
75772;SDS011;64381;0.000;0.000;2023-06-14T11:50:15;3.47;;;1.70;;
75772;SDS011;64381;0.000;0.000;2023-06-14T11:52:40;3.60;;;2.00;;
75772;SDS011;64381;0.000;0.000;2023-06-14T11:55:06;3.70;;;1.97;;
75772;SDS011;64381;0.000;0.000;2023-06-14T11:57:34;3.97;;;1.87;;
75772;SDS011;64381;0.000;0.000;2023-06-14T13:09:44;3.80;;;1.98;;
75772;SDS011;64381;0.000;0.000;2023-06-14T13:12:10;4.73;;;2.27;;
75772;SDS011;64381;0.000;0.000;2023-06-14T13:14:35;3.73;;;2.10;;
75772;SDS011;64381;0.000;0.000;2023-06-14T13:17:01;3.65;;;1.90;;
75772;SDS011;64381;0.000;0.000;2023-06-14T13:19:26;4.33;;;2.30;;
75772;SDS011;64381;0.000;0.000;2023-06-14T13:21:51;4.00;;;2.30;;
75772;SDS011;64381;0.000;0.000;2023-06-14T13:24:17;3.90;;;2.00;;
75772;SDS011;64381;0.000;0.000;2023-06-14T13:26:42;4.20;;;2.10;;
75772;SDS011;64381;0.000;0.000;2023-06-14T13:29:07;3.77;;;2.10;;
75772;SDS011;64381;0.000;0.000;2023-06-14T13:31:33;3.97;;;2.27;;
75772;SDS011;64381;0.000;0.000;2023-06-14T13:33:58;3.37;;;2.00;;
75772;SDS011;64381;0.000;0.000;2023-06-14T13:36:23;3.73;;;2.13;;
75772;SDS011;64381;0.000;0.000;2023-06-14T13:38:48;4.23;;;2.30;;
75772;SDS011;64381;0.000;0.000;2023-06-14T13:41:13;4.10;;;2.10;;
75772;SDS011;64381;0.000;0.000;2023-06-14T13:43:39;3.90;;;2.20;;
75772;SDS011;64381;0.000;0.000;2023-06-14T13:46:04;4.63;;;2.20;;
75772;SDS011;64381;0.000;0.000;2023-06-14T13:48:29;3.60;;;2.10;;
75772;SDS011;64381;0.000;0.000;2023-06-14T13:50:54;4.47;;;2.30;;
75772;SDS011;64381;0.000;0.000;2023-06-14T13:53:20;4.63;;;2.30;;
75772;SDS011;64381;0.000;0.000;2023-06-14T13:55:45;4.17;;;2.30;;
75772;SDS011;64381;0.000;0.000;2023-06-14T13:58:10;4.50;;;2.20;;
75772;SDS011;64381;0.000;0.000;2023-06-14T14:00:35;4.00;;;2.17;;
75772;SDS011;64381;0.000;0.000;2023-06-14T14:03:00;4.17;;;2.20;;
75772;SDS011;64381;0.000;0.000;2023-06-14T14:05:26;4.70;;;2.20;;
75772;SDS011;64381;0.000;0.000;2023-06-14T14:07:51;3.60;;;2.20;;
75772;SDS011;64381;0.000;0.000;2023-06-14T14:10:16;4.10;;;2.30;;
75772;SDS011;64381;0.000;0.000;2023-06-14T14:12:41;4.67;;;2.13;;
75772;SDS011;64381;0.000;0.000;2023-06-14T14:15:07;3.83;;;2.40;;
75772;SDS011;64381;0.000;0.000;2023-06-14T14:17:32;4.05;;;2.30;;
75772;SDS011;64381;0.000;0.000;2023-06-14T14:19:57;3.90;;;2.20;;
75772;SDS011;64381;0.000;0.000;2023-06-14T14:22:22;4.73;;;2.13;;
75772;SDS011;64381;0.000;0.000;2023-06-14T14:24:48;3.80;;;2.13;;
75772;SDS011;64381;0.000;0.000;2023-06-14T14:27:13;4.27;;;2.33;;
75772;SDS011;64381;0.000;0.000;2023-06-14T14:29:38;4.03;;;2.20;;
75772;SDS011;64381;0.000;0.000;2023-06-14T14:32:04;3.90;;;2.13;;
75772;SDS011;64381;0.000;0.000;2023-06-14T14:34:29;3.60;;;2.03;;
75772;SDS011;64381;0.000;0.000;2023-06-14T14:36:54;3.80;;;2.23;;
75772;SDS011;64381;0.000;0.000;2023-06-14T14:39:20;3.63;;;2.13;;
75772;SDS011;64381;0.000;0.000;2023-06-14T14:41:45;4.87;;;2.30;;
75772;SDS011;64381;0.000;0.000;2023-06-14T14:44:10;3.90;;;2.20;;
75772;SDS011;64381;0.000;0.000;2023-06-14T14:46:35;4.10;;;2.10;;
75772;SDS011;64381;0.000;0.000;2023-06-14T14:49:00;4.37;;;2.07;;
75772;SDS011;64381;0.000;0.000;2023-06-14T14:51:26;3.70;;;2.10;;
75772;SDS011;64381;0.000;0.000;2023-06-14T14:53:51;3.83;;;2.20;;
75772;SDS011;64381;0.000;0.000;2023-06-14T14:56:16;4.53;;;2.40;;
75772;SDS011;64381;0.000;0.000;2023-06-14T14:58:41;4.03;;;2.00;;
75772;SDS011;64381;0.000;0.000;2023-06-14T15:01:07;3.87;;;2.00;;
75772;SDS011;64381;0.000;0.000;2023-06-14T15:03:32;3.90;;;2.20;;
75772;SDS011;64381;0.000;0.000;2023-06-14T15:05:57;3.77;;;2.03;;
75772;SDS011;64381;0.000;0.000;2023-06-14T15:08:22;4.53;;;2.30;;
75772;SDS011;64381;0.000;0.000;2023-06-14T15:10:48;3.70;;;2.10;;
75772;SDS011;64381;0.000;0.000;2023-06-14T15:13:13;4.07;;;2.20;;
75772;SDS011;64381;0.000;0.000;2023-06-14T15:15:38;4.10;;;2.23;;
75772;SDS011;64381;0.000;0.000;2023-06-14T15:18:04;4.53;;;2.27;;
75772;SDS011;64381;0.000;0.000;2023-06-14T15:20:29;4.57;;;2.33;;
75772;SDS011;64381;0.000;0.000;2023-06-14T15:22:54;4.23;;;2.17;;
75772;SDS011;64381;0.000;0.000;2023-06-14T15:25:20;4.23;;;2.30;;
75772;SDS011;64381;0.000;0.000;2023-06-14T15:27:45;4.40;;;2.30;;
75772;SDS011;64381;0.000;0.000;2023-06-14T15:30:10;4.03;;;2.10;;
75772;SDS011;64381;0.000;0.000;2023-06-14T15:32:36;4.10;;;2.20;;
75772;SDS011;64381;0.000;0.000;2023-06-14T15:35:01;4.03;;;2.27;;
75772;SDS011;64381;0.000;0.000;2023-06-14T15:37:27;4.27;;;2.03;;
75772;SDS011;64381;0.000;0.000;2023-06-14T15:39:52;3.57;;;2.10;;
75772;SDS011;64381;0.000;0.000;2023-06-14T15:42:17;3.60;;;2.03;;
75772;SDS011;64381;0.000;0.000;2023-06-14T15:44:42;3.73;;;2.00;;
75772;SDS011;64381;0.000;0.000;2023-06-14T15:47:07;4.40;;;2.30;;
75772;SDS011;64381;0.000;0.000;2023-06-14T15:49:33;3.90;;;2.10;;
75772;SDS011;64381;0.000;0.000;2023-06-14T15:51:58;3.47;;;1.90;;
75772;SDS011;64381;0.000;0.000;2023-06-14T15:54:23;4.57;;;2.10;;
75772;SDS011;64381;0.000;0.000;2023-06-14T15:56:48;5.23;;;2.10;;
75772;SDS011;64381;0.000;0.000;2023-06-14T15:59:14;5.67;;;2.30;;
75772;SDS011;64381;0.000;0.000;2023-06-14T16:01:39;3.40;;;1.90;;
75772;SDS011;64381;0.000;0.000;2023-06-14T16:04:04;4.07;;;2.17;;
75772;SDS011;64381;0.000;0.000;2023-06-14T16:06:29;4.23;;;1.83;;
75772;SDS011;64381;0.000;0.000;2023-06-14T16:08:54;4.90;;;2.00;;
75772;SDS011;64381;0.000;0.000;2023-06-14T16:11:20;3.77;;;1.80;;
75772;SDS011;64381;0.000;0.000;2023-06-14T16:16:48;26.70;;;3.88;;
75772;SDS011;64381;0.000;0.000;2023-06-14T16:19:13;24.47;;;3.93;;
75772;SDS011;64381;0.000;0.000;2023-06-14T16:21:38;28.07;;;4.30;;
75772;SDS011;64381;0.000;0.000;2023-06-14T16:24:04;24.43;;;3.90;;
75772;SDS011;64381;0.000;0.000;2023-06-14T16:26:29;17.80;;;3.13;;
75772;SDS011;64381;0.000;0.000;2023-06-14T16:28:54;23.07;;;3.30;;
75772;SDS011;64381;0.000;0.000;2023-06-14T16:31:19;16.43;;;3.20;;
75772;SDS011;64381;0.000;0.000;2023-06-14T16:33:45;13.70;;;3.17;;
75772;SDS011;64381;0.000;0.000;2023-06-14T16:36:10;16.97;;;2.80;;
75772;SDS011;64381;0.000;0.000;2023-06-14T16:38:35;14.07;;;2.90;;
75772;SDS011;64381;0.000;0.000;2023-06-14T16:41:00;16.47;;;3.40;;
75772;SDS011;64381;0.000;0.000;2023-06-14T16:43:26;12.13;;;2.70;;
75772;SDS011;64381;0.000;0.000;2023-06-14T16:45:51;15.87;;;2.90;;
75772;SDS011;64381;0.000;0.000;2023-06-14T16:48:17;12.27;;;3.20;;
75772;SDS011;64381;0.000;0.000;2023-06-14T16:50:42;13.80;;;2.63;;
75772;SDS011;64381;0.000;0.000;2023-06-14T16:53:07;19.80;;;3.40;;
75772;SDS011;64381;0.000;0.000;2023-06-14T16:55:32;11.90;;;3.30;;
75772;SDS011;64381;0.000;0.000;2023-06-14T16:57:58;11.40;;;2.50;;
75772;SDS011;64381;0.000;0.000;2023-06-14T17:00:24;12.50;;;2.80;;
75772;SDS011;64381;0.000;0.000;2023-06-14T17:02:49;10.73;;;2.75;;
75772;SDS011;64381;0.000;0.000;2023-06-14T17:05:15;10.97;;;2.87;;
75772;SDS011;64381;0.000;0.000;2023-06-14T17:07:40;12.37;;;3.20;;
75772;SDS011;64381;0.000;0.000;2023-06-14T17:10:05;8.80;;;2.67;;